createdAt,value
2017-07-05T00:00:35.845Z,17.72
2017-07-05T00:01:16.377Z,17.74
2017-07-05T00:01:56.906Z,17.7
2017-07-05T00:02:37.415Z,17.71
2017-07-05T00:03:17.939Z,17.62
2017-07-05T00:03:58.436Z,17.7
2017-07-05T00:04:38.943Z,17.68
2017-07-05T00:05:19.518Z,17.66
2017-07-05T00:06:00.052Z,17.66
2017-07-05T00:06:40.567Z,17.72
2017-07-05T00:07:21.129Z,17.58
2017-07-05T00:08:01.647Z,17.66
2017-07-05T00:08:42.170Z,17.59
2017-07-05T00:09:22.687Z,17.63
2017-07-05T00:10:03.220Z,17.62
2017-07-05T00:10:43.726Z,17.68
2017-07-05T00:11:24.278Z,17.58
2017-07-05T00:12:04.792Z,17.55
2017-07-05T00:12:45.315Z,17.58
2017-07-05T00:13:25.829Z,17.54
2017-07-05T00:14:06.344Z,17.54
2017-07-05T00:14:46.890Z,17.54
2017-07-05T00:15:27.389Z,17.52
2017-07-05T00:16:07.931Z,17.51
2017-07-05T00:16:48.471Z,17.49
2017-07-05T00:17:29.008Z,17.51
2017-07-05T00:18:09.545Z,17.52
2017-07-05T00:18:50.080Z,17.51
2017-07-05T00:19:30.626Z,17.46
2017-07-05T00:20:11.155Z,17.4
2017-07-05T00:20:51.687Z,17.43
2017-07-05T00:21:32.199Z,17.38
2017-07-05T00:22:12.733Z,17.43
2017-07-05T00:22:53.274Z,17.41
2017-07-05T00:23:33.783Z,17.33
2017-07-05T00:24:14.333Z,17.26
2017-07-05T00:24:54.873Z,17.3
2017-07-05T00:25:35.437Z,17.33
2017-07-05T00:26:15.943Z,17.25
2017-07-05T00:26:56.474Z,17.28
2017-07-05T00:27:36.994Z,17.23
2017-07-05T00:28:17.540Z,17.33
2017-07-05T00:28:58.039Z,17.33
2017-07-05T00:29:38.579Z,17.15
2017-07-05T00:30:19.107Z,17.19
2017-07-05T00:30:59.673Z,17.15
2017-07-05T00:31:40.221Z,17.04
2017-07-05T00:32:20.725Z,17.04
2017-07-05T00:33:01.222Z,17.06
2017-07-05T00:33:41.744Z,17.08
2017-07-05T00:34:22.297Z,17.03
2017-07-05T00:35:02.817Z,17.01
2017-07-05T00:35:43.367Z,16.97
2017-07-05T00:36:23.905Z,16.97
2017-07-05T00:37:04.439Z,16.93
2017-07-05T00:37:44.961Z,16.94
2017-07-05T00:38:25.472Z,17.01
2017-07-05T00:39:06.003Z,16.86
2017-07-05T00:39:46.530Z,16.89
2017-07-05T00:40:27.051Z,16.83
2017-07-05T00:41:07.609Z,16.89
2017-07-05T00:41:48.094Z,16.96
2017-07-05T00:42:28.605Z,16.94
2017-07-05T00:43:09.146Z,16.85
2017-07-05T00:43:49.684Z,16.83
2017-07-05T00:44:30.229Z,16.88
2017-07-05T00:45:10.793Z,16.91
2017-07-05T00:45:51.294Z,16.88
2017-07-05T00:46:31.796Z,16.97
2017-07-05T00:47:12.311Z,16.89
2017-07-05T00:47:52.871Z,16.97
2017-07-05T00:48:33.403Z,16.97
2017-07-05T00:49:13.957Z,16.93
2017-07-05T00:49:54.501Z,16.89
2017-07-05T00:50:35.034Z,16.98
2017-07-05T00:51:15.558Z,16.98
2017-07-05T00:51:56.099Z,16.97
2017-07-05T00:52:36.635Z,16.93
2017-07-05T00:53:17.167Z,16.91
2017-07-05T00:53:57.641Z,16.91
2017-07-05T00:54:38.203Z,16.93
2017-07-05T00:55:18.743Z,16.89
2017-07-05T00:55:59.268Z,16.94
2017-07-05T00:56:39.817Z,16.89
2017-07-05T00:57:20.373Z,16.91
2017-07-05T00:58:00.895Z,16.89
2017-07-05T00:58:41.452Z,16.89
2017-07-05T00:59:21.998Z,16.88
2017-07-05T01:00:02.514Z,16.96
2017-07-05T01:00:43.056Z,16.89
2017-07-05T01:01:23.613Z,16.93
2017-07-05T01:02:04.161Z,16.88
2017-07-05T01:02:44.715Z,16.81
2017-07-05T01:03:25.233Z,16.81
2017-07-05T01:04:05.826Z,16.79
2017-07-05T01:04:46.337Z,16.81
2017-07-05T01:05:26.876Z,16.71
2017-07-05T01:06:07.389Z,16.75
2017-07-05T01:06:47.950Z,16.68
2017-07-05T01:07:28.433Z,16.66
2017-07-05T01:08:08.964Z,16.7
2017-07-05T01:08:49.494Z,16.61
2017-07-05T01:09:30.022Z,16.73
2017-07-05T01:10:10.552Z,16.7
2017-07-05T01:10:51.082Z,16.67
2017-07-05T01:11:31.583Z,16.68
2017-07-05T01:12:12.124Z,16.64
2017-07-05T01:12:52.619Z,16.58
2017-07-05T01:13:33.147Z,16.53
2017-07-05T01:14:13.685Z,16.6
2017-07-05T01:14:54.172Z,16.53
2017-07-05T01:15:34.716Z,16.6
2017-07-05T01:16:15.254Z,16.61
2017-07-05T01:16:55.777Z,16.6
2017-07-05T01:17:36.310Z,16.57
2017-07-05T01:18:16.842Z,16.48
2017-07-05T01:18:57.335Z,16.46
2017-07-05T01:19:37.878Z,16.56
2017-07-05T01:20:18.421Z,16.56
2017-07-05T01:20:58.963Z,16.46
2017-07-05T01:21:39.517Z,16.52
2017-07-05T01:22:20.048Z,16.46
2017-07-05T01:23:00.593Z,16.56
2017-07-05T01:23:41.171Z,16.61
2017-07-05T01:24:21.692Z,16.56
2017-07-05T01:25:02.232Z,16.63
2017-07-05T01:25:42.775Z,16.56
2017-07-05T01:26:23.311Z,16.58
2017-07-05T01:27:03.852Z,16.58
2017-07-05T01:27:44.410Z,16.5
2017-07-05T01:28:24.953Z,16.48
2017-07-05T01:29:05.492Z,16.48
2017-07-05T01:29:46.008Z,16.5
2017-07-05T01:30:26.540Z,16.56
2017-07-05T01:31:07.066Z,16.46
2017-07-05T01:31:47.589Z,16.56
2017-07-05T01:32:28.131Z,16.56
2017-07-05T01:33:08.732Z,16.42
2017-07-05T01:33:49.266Z,16.45
2017-07-05T01:34:29.831Z,16.56
2017-07-05T01:35:10.371Z,16.45
2017-07-05T01:35:50.887Z,16.43
2017-07-05T01:36:31.433Z,16.52
2017-07-05T01:37:11.965Z,16.56
2017-07-05T01:37:52.508Z,16.48
2017-07-05T01:38:33.060Z,16.42
2017-07-05T01:39:13.599Z,16.41
2017-07-05T01:39:54.119Z,16.45
2017-07-05T01:40:34.642Z,16.48
2017-07-05T01:41:15.154Z,16.49
2017-07-05T01:41:55.683Z,16.43
2017-07-05T01:42:36.198Z,16.43
2017-07-05T01:43:16.728Z,16.42
2017-07-05T01:43:57.259Z,16.39
2017-07-05T01:44:37.797Z,16.41
2017-07-05T01:45:18.335Z,16.39
2017-07-05T01:45:58.871Z,16.34
2017-07-05T01:46:39.435Z,16.33
2017-07-05T01:47:19.983Z,16.28
2017-07-05T01:48:00.490Z,16.25
2017-07-05T01:48:41.023Z,16.31
2017-07-05T01:49:21.590Z,16.31
2017-07-05T01:50:02.078Z,16.28
2017-07-05T01:50:42.589Z,16.3
2017-07-05T01:51:23.099Z,16.21
2017-07-05T01:52:03.608Z,16.27
2017-07-05T01:52:44.146Z,16.27
2017-07-05T01:53:24.645Z,16.23
2017-07-05T01:54:05.160Z,16.25
2017-07-05T01:54:45.699Z,16.2
2017-07-05T01:55:26.202Z,16.14
2017-07-05T01:56:06.718Z,16.15
2017-07-05T01:56:47.235Z,16.24
2017-07-05T01:57:27.760Z,16.21
2017-07-05T01:58:08.269Z,16.25
2017-07-05T01:58:48.791Z,16.14
2017-07-05T01:59:29.292Z,16.24
2017-07-05T02:00:09.817Z,16.15
2017-07-05T02:00:50.353Z,16.11
2017-07-05T02:01:30.852Z,16.09
2017-07-05T02:02:11.394Z,16.08
2017-07-05T02:02:51.903Z,16.05
2017-07-05T02:03:32.447Z,16.04
2017-07-05T02:04:12.977Z,16.08
2017-07-05T02:04:53.482Z,16.01
2017-07-05T02:05:33.976Z,16.01
2017-07-05T02:06:14.491Z,16.02
2017-07-05T02:06:55.046Z,16.08
2017-07-05T02:07:35.580Z,16.05
2017-07-05T02:08:16.107Z,16
2017-07-05T02:08:56.654Z,16.07
2017-07-05T02:09:37.192Z,16
2017-07-05T02:10:17.754Z,16
2017-07-05T02:10:58.291Z,16.04
2017-07-05T02:11:38.825Z,16.02
2017-07-05T02:12:19.361Z,16
2017-07-05T02:12:59.874Z,16.01
2017-07-05T02:13:40.382Z,16.04
2017-07-05T02:14:20.902Z,15.9
2017-07-05T02:15:01.418Z,15.97
2017-07-05T02:15:41.940Z,16.02
2017-07-05T02:16:22.467Z,16.02
2017-07-05T02:17:02.969Z,16.01
2017-07-05T02:17:43.519Z,16.01
2017-07-05T02:18:24.042Z,15.9
2017-07-05T02:19:04.558Z,16.01
2017-07-05T02:19:45.077Z,16.01
2017-07-05T02:20:25.579Z,16
2017-07-05T02:21:06.105Z,15.97
2017-07-05T02:21:46.644Z,15.94
2017-07-05T02:22:27.171Z,15.93
2017-07-05T02:23:07.662Z,15.97
2017-07-05T02:23:48.203Z,15.96
2017-07-05T02:24:28.695Z,15.94
2017-07-05T02:25:09.212Z,16
2017-07-05T02:25:49.727Z,15.94
2017-07-05T02:26:30.265Z,15.94
2017-07-05T02:27:10.807Z,16.01
2017-07-05T02:27:51.346Z,16.01
2017-07-05T02:28:31.867Z,16.01
2017-07-05T02:29:12.395Z,15.92
2017-07-05T02:29:52.918Z,15.96
2017-07-05T02:30:33.431Z,15.97
2017-07-05T02:31:13.965Z,15.86
2017-07-05T02:31:54.510Z,15.92
2017-07-05T02:32:35.055Z,16.02
2017-07-05T02:33:15.602Z,15.97
2017-07-05T02:33:56.152Z,15.84
2017-07-05T02:34:36.697Z,16
2017-07-05T02:35:17.256Z,15.89
2017-07-05T02:35:57.803Z,15.92
2017-07-05T02:36:38.325Z,15.92
2017-07-05T02:37:18.866Z,15.94
2017-07-05T02:37:59.398Z,15.92
2017-07-05T02:38:39.887Z,15.83
2017-07-05T02:39:20.453Z,15.93
2017-07-05T02:40:00.971Z,15.9
2017-07-05T02:40:41.540Z,15.89
2017-07-05T02:41:22.046Z,15.89
2017-07-05T02:42:02.560Z,15.93
2017-07-05T02:42:43.085Z,15.9
2017-07-05T02:43:23.596Z,15.84
2017-07-05T02:44:04.114Z,15.82
2017-07-05T02:44:44.663Z,15.93
2017-07-05T02:45:25.167Z,15.84
2017-07-05T02:46:05.667Z,15.82
2017-07-05T02:46:46.187Z,15.84
2017-07-05T02:47:26.700Z,15.89
2017-07-05T02:48:07.178Z,15.86
2017-07-05T02:48:47.682Z,15.78
2017-07-05T02:49:28.192Z,15.78
2017-07-05T02:50:08.705Z,15.83
2017-07-05T02:50:49.193Z,15.78
2017-07-05T02:51:29.707Z,15.82
2017-07-05T02:52:10.245Z,15.82
2017-07-05T02:52:50.773Z,15.8
2017-07-05T02:53:31.319Z,15.78
2017-07-05T02:54:11.878Z,15.8
2017-07-05T02:54:52.371Z,15.76
2017-07-05T02:55:32.889Z,15.76
2017-07-05T02:56:13.386Z,15.72
2017-07-05T02:56:53.925Z,15.76
2017-07-05T02:57:34.477Z,15.69
2017-07-05T02:58:15.030Z,15.78
2017-07-05T02:58:55.531Z,15.78
2017-07-05T02:59:36.071Z,15.78
2017-07-05T03:00:16.669Z,15.72
2017-07-05T03:00:57.235Z,15.78
2017-07-05T03:01:37.779Z,15.78
2017-07-05T03:02:18.301Z,15.8
2017-07-05T03:02:58.831Z,15.8
2017-07-05T03:03:39.345Z,15.67
2017-07-05T03:04:19.920Z,15.74
2017-07-05T03:05:00.432Z,15.72
2017-07-05T03:05:40.936Z,15.74
2017-07-05T03:06:21.448Z,15.74
2017-07-05T03:07:01.966Z,15.75
2017-07-05T03:07:42.471Z,15.68
2017-07-05T03:08:23.002Z,15.69
2017-07-05T03:09:03.515Z,15.71
2017-07-05T03:09:44.030Z,15.67
2017-07-05T03:10:24.554Z,15.68
2017-07-05T03:11:05.070Z,15.69
2017-07-05T03:11:45.561Z,15.68
2017-07-05T03:12:26.091Z,15.74
2017-07-05T03:13:06.589Z,15.67
2017-07-05T03:13:47.095Z,15.71
2017-07-05T03:14:27.632Z,15.69
2017-07-05T03:15:08.150Z,15.72
2017-07-05T03:15:48.677Z,15.72
2017-07-05T03:16:29.195Z,15.72
2017-07-05T03:17:09.705Z,15.72
2017-07-05T03:17:50.232Z,15.69
2017-07-05T03:18:30.757Z,15.71
2017-07-05T03:19:11.294Z,15.71
2017-07-05T03:19:51.822Z,15.68
2017-07-05T03:20:32.387Z,15.71
2017-07-05T03:21:12.883Z,15.75
2017-07-05T03:21:53.424Z,15.67
2017-07-05T03:22:33.960Z,15.72
2017-07-05T03:23:14.494Z,15.57
2017-07-05T03:23:55.033Z,15.64
2017-07-05T03:24:35.573Z,15.69
2017-07-05T03:25:16.118Z,15.57
2017-07-05T03:25:56.654Z,15.69
2017-07-05T03:26:37.208Z,15.6
2017-07-05T03:27:17.757Z,15.57
2017-07-05T03:27:58.267Z,15.59
2017-07-05T03:28:38.804Z,15.57
2017-07-05T03:29:19.334Z,15.64
2017-07-05T03:29:59.815Z,15.67
2017-07-05T03:30:40.338Z,15.56
2017-07-05T03:31:20.840Z,15.56
2017-07-05T03:32:01.376Z,15.65
2017-07-05T03:32:41.887Z,15.71
2017-07-05T03:33:22.443Z,15.6
2017-07-05T03:34:02.990Z,15.71
2017-07-05T03:34:43.509Z,15.57
2017-07-05T03:35:24.032Z,15.57
2017-07-05T03:36:04.541Z,15.57
2017-07-05T03:36:45.045Z,15.54
2017-07-05T03:37:25.556Z,15.6
2017-07-05T03:38:06.053Z,15.56
2017-07-05T03:38:46.566Z,15.62
2017-07-05T03:39:27.092Z,15.62
2017-07-05T03:40:07.638Z,15.6
2017-07-05T03:40:48.153Z,15.65
2017-07-05T03:41:28.679Z,15.54
2017-07-05T03:42:09.205Z,15.59
2017-07-05T03:42:49.698Z,15.65
2017-07-05T03:43:30.247Z,15.6
2017-07-05T03:44:10.789Z,15.57
2017-07-05T03:44:51.350Z,15.71
2017-07-05T03:45:31.880Z,15.6
2017-07-05T03:46:12.395Z,15.57
2017-07-05T03:46:52.958Z,15.59
2017-07-05T03:47:33.478Z,15.69
2017-07-05T03:48:14.019Z,15.6
2017-07-05T03:48:54.564Z,15.6
2017-07-05T03:49:35.098Z,15.62
2017-07-05T03:50:15.621Z,15.54
2017-07-05T03:50:56.216Z,15.62
2017-07-05T03:51:36.762Z,15.57
2017-07-05T03:52:17.280Z,15.59
2017-07-05T03:52:57.796Z,15.62
2017-07-05T03:53:38.302Z,15.6
2017-07-05T03:54:18.817Z,15.59
2017-07-05T03:54:59.344Z,15.54
2017-07-05T03:55:39.852Z,15.69
2017-07-05T03:56:20.376Z,15.67
2017-07-05T03:57:00.878Z,15.6
2017-07-05T03:57:41.465Z,15.59
2017-07-05T03:58:22.008Z,15.65
2017-07-05T03:59:02.568Z,15.65
2017-07-05T03:59:43.066Z,15.64
2017-07-05T04:00:23.566Z,15.54
2017-07-05T04:01:04.112Z,15.65
2017-07-05T04:01:44.568Z,15.62
2017-07-05T04:02:25.080Z,15.54
2017-07-05T04:03:05.613Z,15.64
2017-07-05T04:03:46.146Z,15.53
2017-07-05T04:04:26.667Z,15.56
2017-07-05T04:05:07.186Z,15.56
2017-07-05T04:05:47.727Z,15.54
2017-07-05T04:06:28.241Z,15.6
2017-07-05T04:07:08.779Z,15.57
2017-07-05T04:07:49.278Z,15.54
2017-07-05T04:08:29.844Z,15.59
2017-07-05T04:09:10.369Z,15.59
2017-07-05T04:09:50.896Z,15.59
2017-07-05T04:10:31.422Z,15.54
2017-07-05T04:11:11.916Z,15.54
2017-07-05T04:11:52.422Z,15.71
2017-07-05T04:12:32.938Z,15.67
2017-07-05T04:13:13.461Z,15.68
2017-07-05T04:13:53.983Z,15.71
2017-07-05T04:14:34.496Z,15.68
2017-07-05T04:15:15.012Z,15.65
2017-07-05T04:15:55.558Z,15.67
2017-07-05T04:16:36.092Z,15.71
2017-07-05T04:17:16.627Z,15.74
2017-07-05T04:17:57.138Z,15.75
2017-07-05T04:18:37.659Z,15.64
2017-07-05T04:19:18.181Z,15.72
2017-07-05T04:19:58.690Z,15.71
2017-07-05T04:20:39.213Z,15.8
2017-07-05T04:21:19.749Z,15.8
2017-07-05T04:22:00.277Z,15.78
2017-07-05T04:22:40.815Z,15.8
2017-07-05T04:23:21.354Z,15.76
2017-07-05T04:24:01.919Z,15.75
2017-07-05T04:24:42.465Z,15.68
2017-07-05T04:25:23.025Z,15.68
2017-07-05T04:26:03.566Z,15.8
2017-07-05T04:26:44.108Z,15.82
2017-07-05T04:27:24.634Z,15.82
2017-07-05T04:28:05.213Z,15.76
2017-07-05T04:28:45.700Z,15.8
2017-07-05T04:29:26.195Z,15.8
2017-07-05T04:30:06.713Z,15.84
2017-07-05T04:30:47.256Z,15.83
2017-07-05T04:31:27.780Z,15.83
2017-07-05T04:32:08.275Z,15.89
2017-07-05T04:32:48.871Z,15.84
2017-07-05T04:33:29.379Z,15.86
2017-07-05T04:34:09.927Z,15.93
2017-07-05T04:34:50.446Z,15.82
2017-07-05T04:35:31.016Z,15.92
2017-07-05T04:36:11.534Z,15.86
2017-07-05T04:36:52.062Z,15.92
2017-07-05T04:37:32.607Z,15.89
2017-07-05T04:38:13.109Z,15.83
2017-07-05T04:38:53.642Z,15.84
2017-07-05T04:39:34.172Z,15.89
2017-07-05T04:40:14.697Z,15.87
2017-07-05T04:40:55.227Z,15.86
2017-07-05T04:41:35.793Z,15.93
2017-07-05T04:42:16.301Z,15.86
2017-07-05T04:42:56.830Z,15.84
2017-07-05T04:43:37.339Z,15.92
2017-07-05T04:44:17.843Z,15.87
2017-07-05T04:44:58.386Z,15.9
2017-07-05T04:45:38.957Z,15.89
2017-07-05T04:46:19.436Z,15.89
2017-07-05T04:46:59.946Z,15.87
2017-07-05T04:47:40.466Z,16.01
2017-07-05T04:48:20.986Z,15.89
2017-07-05T04:49:01.500Z,15.84
2017-07-05T04:49:42.042Z,15.89
2017-07-05T04:50:22.574Z,15.92
2017-07-05T04:51:03.112Z,15.84
2017-07-05T04:51:43.650Z,15.92
2017-07-05T04:52:24.187Z,15.96
2017-07-05T04:53:04.710Z,15.94
2017-07-05T04:53:45.214Z,16.01
2017-07-05T04:54:25.704Z,15.89
2017-07-05T04:55:06.246Z,16.04
2017-07-05T04:55:46.738Z,15.97
2017-07-05T04:56:27.271Z,15.92
2017-07-05T04:57:07.804Z,15.97
2017-07-05T04:57:48.360Z,15.97
2017-07-05T04:58:28.880Z,16
2017-07-05T04:59:09.402Z,16.04
2017-07-05T04:59:49.927Z,15.9
2017-07-05T05:00:30.461Z,15.97
2017-07-05T05:01:11.005Z,16.04
2017-07-05T05:01:51.483Z,16.01
2017-07-05T05:02:31.983Z,15.92
2017-07-05T05:03:12.522Z,16.01
2017-07-05T05:03:53.075Z,16
2017-07-05T05:04:33.585Z,16.01
2017-07-05T05:05:14.135Z,16.01
2017-07-05T05:05:54.659Z,16.02
2017-07-05T05:06:35.211Z,16.01
2017-07-05T05:07:15.767Z,16.05
2017-07-05T05:07:56.297Z,16.01
2017-07-05T05:08:36.817Z,16
2017-07-05T05:09:17.391Z,16.09
2017-07-05T05:09:57.991Z,15.94
2017-07-05T05:10:38.474Z,15.97
2017-07-05T05:11:18.992Z,16.17
2017-07-05T05:11:59.547Z,16.02
2017-07-05T05:12:40.055Z,16.05
2017-07-05T05:13:20.581Z,16.02
2017-07-05T05:14:01.117Z,16.09
2017-07-05T05:14:41.658Z,16.11
2017-07-05T05:15:22.201Z,16.01
2017-07-05T05:16:02.745Z,16.09
2017-07-05T05:16:43.299Z,16.05
2017-07-05T05:17:23.840Z,16.11
2017-07-05T05:18:04.373Z,16.08
2017-07-05T05:18:44.924Z,16.15
2017-07-05T05:19:25.472Z,16.17
2017-07-05T05:20:06.010Z,16.11
2017-07-05T05:20:46.554Z,16.11
2017-07-05T05:21:27.099Z,16.24
2017-07-05T05:22:07.642Z,16.3
2017-07-05T05:22:48.171Z,16.15
2017-07-05T05:24:53.256Z,16.21
2017-07-05T05:25:33.790Z,16.31
2017-07-05T05:26:14.396Z,16.24
2017-07-05T05:26:54.937Z,16.34
2017-07-05T05:27:35.478Z,16.35
2017-07-05T05:28:16.055Z,16.27
2017-07-05T05:28:56.597Z,16.3
2017-07-05T05:29:37.141Z,16.31
2017-07-05T05:30:17.687Z,16.41
2017-07-05T05:30:58.233Z,16.46
2017-07-05T05:31:38.769Z,16.45
2017-07-05T05:32:19.312Z,16.41
2017-07-05T05:32:59.847Z,16.48
2017-07-05T05:33:40.384Z,16.49
2017-07-05T05:34:20.928Z,16.52
2017-07-05T05:35:01.467Z,16.5
2017-07-05T05:35:42.008Z,16.61
2017-07-05T05:36:22.542Z,16.57
2017-07-05T05:37:03.087Z,16.58
2017-07-05T05:37:43.635Z,16.61
2017-07-05T05:38:24.175Z,16.63
2017-07-05T05:39:04.693Z,16.75
2017-07-05T05:39:45.231Z,16.76
2017-07-05T05:40:25.761Z,16.81
2017-07-05T05:41:06.303Z,16.79
2017-07-05T05:41:46.846Z,16.78
2017-07-05T05:42:27.372Z,16.83
2017-07-05T05:43:07.910Z,16.88
2017-07-05T05:43:48.442Z,16.96
2017-07-05T05:44:28.986Z,16.93
2017-07-05T05:45:09.516Z,16.97
2017-07-05T05:45:50.057Z,16.91
2017-07-05T05:46:30.594Z,17
2017-07-05T05:47:11.130Z,17.03
2017-07-05T05:47:51.669Z,17.04
2017-07-05T05:48:32.217Z,17.06
2017-07-05T05:49:12.749Z,17.15
2017-07-05T05:49:53.290Z,17.18
2017-07-05T05:50:34.012Z,17.21
2017-07-05T05:51:14.707Z,17.3
2017-07-05T05:51:55.325Z,17.22
2017-07-05T05:52:35.861Z,17.22
2017-07-05T05:53:16.404Z,17.28
2017-07-05T05:53:56.939Z,17.3
2017-07-05T05:54:37.484Z,17.38
2017-07-05T05:55:18.000Z,17.41
2017-07-05T05:55:58.529Z,17.49
2017-07-05T05:56:39.062Z,17.55
2017-07-05T05:57:19.639Z,17.51
2017-07-05T05:58:00.128Z,17.59
2017-07-05T05:58:40.693Z,17.55
2017-07-05T05:59:21.257Z,17.64
2017-07-05T06:00:01.786Z,17.64
2017-07-05T06:00:42.321Z,17.75
2017-07-05T06:01:22.859Z,17.82
2017-07-05T06:02:03.404Z,17.72
2017-07-05T06:02:43.955Z,17.95
2017-07-05T06:03:24.448Z,17.93
2017-07-05T06:04:04.996Z,17.9
2017-07-05T06:04:45.535Z,18
2017-07-05T06:05:26.079Z,17.96
2017-07-05T06:06:06.616Z,18.03
2017-07-05T06:06:47.158Z,18.08
2017-07-05T06:07:27.695Z,18.1
2017-07-05T06:08:08.234Z,18.14
2017-07-05T06:08:48.751Z,18.15
2017-07-05T06:09:29.290Z,18.23
2017-07-05T06:10:09.838Z,18.32
2017-07-05T06:10:50.378Z,18.25
2017-07-05T06:11:30.941Z,18.35
2017-07-05T06:12:11.470Z,18.35
2017-07-05T06:12:52.017Z,18.33
2017-07-05T06:13:32.578Z,18.33
2017-07-05T06:14:13.113Z,18.48
2017-07-05T06:14:53.664Z,18.45
2017-07-05T06:15:34.199Z,18.48
2017-07-05T06:16:14.738Z,18.62
2017-07-05T06:16:55.280Z,18.63
2017-07-05T06:17:35.819Z,18.62
2017-07-05T06:18:16.356Z,18.72
2017-07-05T06:18:56.902Z,18.66
2017-07-05T06:19:37.447Z,18.69
2017-07-05T06:20:18.012Z,18.72
2017-07-05T06:20:58.554Z,18.78
2017-07-05T06:21:39.095Z,18.8
2017-07-05T06:22:19.641Z,18.78
2017-07-05T06:23:00.231Z,18.94
2017-07-05T06:23:40.781Z,18.85
2017-07-05T06:24:21.328Z,18.99
2017-07-05T06:25:01.877Z,19.02
2017-07-05T06:25:42.432Z,19.13
2017-07-05T06:26:22.967Z,19.19
2017-07-05T06:27:03.504Z,19.23
2017-07-05T06:27:44.071Z,19.23
2017-07-05T06:28:24.606Z,19.29
2017-07-05T06:29:05.147Z,19.37
2017-07-05T06:29:45.687Z,19.22
2017-07-05T06:30:26.239Z,19.36
2017-07-05T06:31:06.783Z,19.46
2017-07-05T06:31:47.321Z,19.44
2017-07-05T06:32:27.861Z,19.5
2017-07-05T06:33:08.406Z,19.56
2017-07-05T06:33:48.923Z,19.63
2017-07-05T06:34:29.459Z,19.55
2017-07-05T06:35:09.996Z,19.58
2017-07-05T06:35:50.545Z,19.69
2017-07-05T06:36:31.092Z,19.73
2017-07-05T06:37:11.649Z,19.68
2017-07-05T06:37:52.177Z,19.69
2017-07-05T06:38:32.721Z,19.69
2017-07-05T06:39:13.253Z,19.71
2017-07-05T06:39:53.788Z,19.71
2017-07-05T06:40:34.335Z,19.66
2017-07-05T06:41:14.880Z,19.73
2017-07-05T06:41:55.420Z,19.77
2017-07-05T06:42:35.963Z,19.74
2017-07-05T06:43:16.515Z,19.77
2017-07-05T06:43:57.054Z,19.74
2017-07-05T06:44:37.596Z,19.71
2017-07-05T06:45:18.150Z,19.77
2017-07-05T06:45:58.699Z,19.81
2017-07-05T06:46:39.240Z,19.81
2017-07-05T06:47:19.782Z,19.84
2017-07-05T06:48:00.329Z,19.8
2017-07-05T06:48:40.877Z,19.94
2017-07-05T06:49:21.418Z,19.88
2017-07-05T06:50:01.965Z,19.98
2017-07-05T06:50:42.498Z,20.03
2017-07-05T06:51:23.022Z,20.06
2017-07-05T06:52:03.572Z,20.18
2017-07-05T06:52:44.121Z,20.13
2017-07-05T06:53:24.661Z,20.14
2017-07-05T06:55:38.943Z,20.42
2017-07-05T06:56:19.462Z,20.48
2017-07-05T06:57:00.012Z,20.55
2017-07-05T06:57:40.559Z,20.54
2017-07-05T06:58:21.108Z,20.54
2017-07-05T06:59:01.658Z,20.62
2017-07-05T06:59:42.209Z,20.62
2017-07-05T07:00:22.761Z,20.74
2017-07-05T07:01:03.318Z,20.7
2017-07-05T07:01:43.848Z,20.84
2017-07-05T07:02:24.390Z,20.84
2017-07-05T07:03:04.936Z,20.8
2017-07-05T07:03:45.486Z,20.89
2017-07-05T07:04:26.027Z,20.91
2017-07-05T07:05:06.550Z,20.95
2017-07-05T07:05:47.101Z,20.97
2017-07-05T07:06:27.673Z,21.12
2017-07-05T07:07:08.208Z,21.21
2017-07-05T07:07:48.739Z,21.22
2017-07-05T07:08:29.285Z,21.34
2017-07-05T07:09:09.826Z,21.43
2017-07-05T07:09:50.386Z,21.54
2017-07-05T07:10:30.927Z,21.58
2017-07-05T07:11:11.474Z,21.58
2017-07-05T07:11:52.026Z,21.72
2017-07-05T07:12:32.570Z,21.79
2017-07-05T07:13:13.120Z,21.9
2017-07-05T07:13:53.662Z,21.91
2017-07-05T07:14:34.207Z,21.98
2017-07-05T07:15:14.760Z,22.05
2017-07-05T07:15:55.311Z,22.22
2017-07-05T07:16:35.859Z,22.24
2017-07-05T07:17:16.410Z,22.22
2017-07-05T07:17:56.962Z,22.33
2017-07-05T07:18:37.511Z,22.31
2017-07-05T07:19:18.059Z,22.43
2017-07-05T07:19:58.606Z,22.47
2017-07-05T07:20:39.156Z,22.42
2017-07-05T07:21:19.706Z,22.33
2017-07-05T07:22:00.256Z,22.43
2017-07-05T07:22:40.825Z,22.36
2017-07-05T07:23:21.346Z,22.33
2017-07-05T07:24:01.896Z,22.36
2017-07-05T07:24:42.461Z,22.22
2017-07-05T07:25:23.001Z,22.3
2017-07-05T07:26:03.545Z,22.27
2017-07-05T07:26:44.080Z,22.31
2017-07-05T07:27:24.616Z,22.35
2017-07-05T07:28:05.164Z,22.47
2017-07-05T07:28:45.713Z,22.49
2017-07-05T07:29:26.261Z,22.45
2017-07-05T07:30:06.799Z,22.43
2017-07-05T07:30:47.354Z,22.4
2017-07-05T07:31:27.900Z,22.51
2017-07-05T07:32:08.446Z,22.33
2017-07-05T07:32:49.001Z,22.3
2017-07-05T07:33:29.552Z,22.35
2017-07-05T07:34:10.101Z,22.31
2017-07-05T07:34:50.647Z,22.33
2017-07-05T07:35:31.198Z,22.27
2017-07-05T07:36:11.741Z,22.42
2017-07-05T07:36:52.288Z,22.43
2017-07-05T07:37:32.835Z,22.49
2017-07-05T07:38:13.378Z,22.35
2017-07-05T07:38:53.928Z,22.3
2017-07-05T07:39:34.483Z,22.46
2017-07-05T07:40:15.033Z,22.45
2017-07-05T07:40:55.582Z,22.49
2017-07-05T07:41:36.133Z,22.57
2017-07-05T07:42:16.684Z,22.62
2017-07-05T07:42:57.239Z,22.57
2017-07-05T07:43:37.786Z,22.6
2017-07-05T07:44:18.335Z,22.6
2017-07-05T07:44:58.881Z,22.58
2017-07-05T07:45:39.430Z,22.51
2017-07-05T07:46:19.973Z,22.61
2017-07-05T07:47:00.520Z,22.75
2017-07-05T07:47:41.063Z,22.82
2017-07-05T07:48:21.607Z,22.85
2017-07-05T07:49:02.154Z,22.88
2017-07-05T07:49:42.696Z,22.88
2017-07-05T07:50:23.239Z,22.88
2017-07-05T07:51:03.802Z,22.92
2017-07-05T07:51:44.325Z,23.01
2017-07-05T07:52:24.868Z,23.07
2017-07-05T07:53:05.418Z,23.1
2017-07-05T07:53:45.972Z,23.16
2017-07-05T07:54:26.548Z,23.16
2017-07-05T07:55:07.101Z,23.13
2017-07-05T07:55:47.646Z,23.1
2017-07-05T07:56:28.197Z,23.09
2017-07-05T07:57:08.746Z,23.17
2017-07-05T07:57:49.290Z,23.17
2017-07-05T07:58:29.839Z,23.16
2017-07-05T07:59:10.382Z,23.17
2017-07-05T07:59:50.933Z,23.2
2017-07-05T08:00:31.480Z,23.25
2017-07-05T08:01:12.035Z,23.2
2017-07-05T08:01:52.583Z,23.36
2017-07-05T08:02:33.135Z,23.35
2017-07-05T08:03:13.683Z,23.42
2017-07-05T08:03:54.234Z,23.47
2017-07-05T08:04:34.783Z,23.6
2017-07-05T08:05:15.336Z,23.65
2017-07-05T08:05:55.886Z,23.8
2017-07-05T08:06:36.435Z,23.93
2017-07-05T08:07:16.987Z,24.02
2017-07-05T08:07:57.539Z,24.27
2017-07-05T08:08:38.089Z,24.22
2017-07-05T08:09:18.645Z,24.25
2017-07-05T08:09:59.199Z,24.4
2017-07-05T08:10:39.747Z,24.46
2017-07-05T08:11:20.302Z,24.45
2017-07-05T08:12:00.854Z,24.45
2017-07-05T08:12:41.406Z,24.57
2017-07-05T08:13:21.948Z,24.58
2017-07-05T08:14:02.496Z,24.58
2017-07-05T08:14:43.069Z,24.65
2017-07-05T08:15:23.620Z,24.64
2017-07-05T08:16:04.172Z,24.77
2017-07-05T08:16:44.713Z,24.8
2017-07-05T08:17:25.271Z,24.73
2017-07-05T08:18:05.822Z,24.69
2017-07-05T08:18:46.367Z,24.67
2017-07-05T08:19:26.924Z,24.76
2017-07-05T08:20:07.475Z,24.73
2017-07-05T08:20:48.018Z,24.73
2017-07-05T08:21:28.577Z,24.76
2017-07-05T08:22:09.135Z,24.76
2017-07-05T08:22:49.673Z,24.9
2017-07-05T08:23:30.221Z,25.09
2017-07-05T08:24:10.771Z,25.2
2017-07-05T08:24:51.326Z,25.5
2017-07-05T08:25:31.877Z,25.58
2017-07-05T08:26:12.423Z,25.67
2017-07-05T08:26:52.984Z,25.83
2017-07-05T08:27:33.529Z,25.99
2017-07-05T08:28:14.080Z,25.97
2017-07-05T08:28:54.627Z,26.01
2017-07-05T08:29:35.176Z,26.01
2017-07-05T08:30:15.713Z,26.01
2017-07-05T08:30:56.270Z,26.06
2017-07-05T08:31:36.822Z,26.1
2017-07-05T08:32:17.370Z,26.3
2017-07-05T08:32:57.918Z,26.4
2017-07-05T08:33:38.472Z,26.67
2017-07-05T08:34:19.022Z,26.8
2017-07-05T08:34:59.573Z,26.88
2017-07-05T08:35:40.110Z,27.12
2017-07-05T08:36:20.674Z,27.27
2017-07-05T08:37:01.221Z,27.44
2017-07-05T08:37:41.772Z,27.82
2017-07-05T08:38:22.321Z,28.04
2017-07-05T08:39:02.871Z,28.18
2017-07-05T08:39:43.421Z,28.36
2017-07-05T08:40:23.971Z,28.33
2017-07-05T08:41:04.523Z,28.31
2017-07-05T08:41:45.073Z,28.51
2017-07-05T08:42:25.629Z,28.68
2017-07-05T08:43:06.187Z,28.92
2017-07-05T08:43:46.742Z,29.11
2017-07-05T08:44:27.300Z,29.42
2017-07-05T08:45:07.847Z,29.63
2017-07-05T08:45:48.396Z,29.83
2017-07-05T08:46:28.953Z,30.01
2017-07-05T08:47:09.497Z,30.34
2017-07-05T08:47:50.057Z,30.54